createdAt,value
2023-03-12T00:01:34.455Z,97912.75
2023-03-12T00:04:58.327Z,97917.38
2023-03-12T00:08:20.115Z,97918.94
2023-03-12T00:11:43.443Z,97912.44
2023-03-12T00:15:06.507Z,97912.50
2023-03-12T00:18:28.333Z,97914.50
2023-03-12T00:21:55.293Z,97908.75
2023-03-12T00:25:28.482Z,97912.31
2023-03-12T00:28:51.789Z,97911.94
2023-03-12T00:32:14.274Z,97913.25
2023-03-12T00:35:38.620Z,97907.72
2023-03-12T00:39:01.789Z,97899.00
2023-03-12T00:42:23.693Z,97891.03
2023-03-12T00:45:48.610Z,97894.16
2023-03-12T00:49:11.695Z,97898.19
2023-03-12T00:52:40.344Z,97903.63
2023-03-12T00:56:04.746Z,97909.59
2023-03-12T00:59:31.641Z,97899.44
2023-03-12T01:02:55.785Z,97898.94
2023-03-12T01:06:17.854Z,97899.66
2023-03-12T01:09:39.702Z,97880.19
2023-03-12T01:13:02.015Z,97870.53
2023-03-12T01:16:28.085Z,97871.78
2023-03-12T01:19:49.915Z,97866.03
2023-03-12T01:23:11.813Z,97874.03
2023-03-12T01:26:33.646Z,97877.16
2023-03-12T01:29:55.865Z,97880.72
2023-03-12T01:33:18.480Z,97892.19
2023-03-12T01:36:42.388Z,97885.75
2023-03-12T01:40:20.585Z,97888.28
2023-03-12T01:43:43.064Z,97887.66
2023-03-12T01:47:05.066Z,97877.47
2023-03-12T01:50:26.959Z,97876.53
2023-03-12T01:54:00.338Z,97870.00
2023-03-12T01:57:34.375Z,97864.72
2023-03-12T02:00:56.367Z,97862.53
2023-03-12T02:04:26.446Z,97865.47
2023-03-12T02:07:49.179Z,97864.34
2023-03-12T02:11:12.046Z,97858.66
2023-03-12T02:14:36.378Z,97858.28
2023-03-12T02:17:59.393Z,97855.25
2023-03-12T02:21:30.349Z,97861.44
2023-03-12T02:25:30.270Z,97864.03
2023-03-12T02:28:56.409Z,97856.25
2023-03-12T02:32:26.478Z,97855.25
2023-03-12T02:35:51.388Z,97851.66
2023-03-12T02:39:13.590Z,97844.50
2023-03-12T02:42:35.949Z,97842.03
2023-03-12T02:45:59.023Z,97840.97
2023-03-12T02:49:31.897Z,97838.06
2023-03-12T02:52:54.632Z,97838.50
2023-03-12T02:56:26.037Z,97834.00
2023-03-12T02:59:48.309Z,97827.91
2023-03-12T03:03:10.606Z,97821.19
2023-03-12T03:06:37.847Z,97821.13
2023-03-12T03:10:07.812Z,97823.41
2023-03-12T03:13:33.582Z,97820.34
2023-03-12T03:17:13.730Z,97813.97
2023-03-12T03:20:39.734Z,97811.56
2023-03-12T03:24:01.723Z,97811.44
2023-03-12T03:27:23.513Z,97803.03
2023-03-12T03:30:45.989Z,97809.03
2023-03-12T03:34:08.170Z,97797.03
2023-03-12T03:37:30.022Z,97794.19
2023-03-12T03:40:55.129Z,97797.13
2023-03-12T03:44:17.085Z,97792.63
2023-03-12T03:47:39.026Z,97790.41
2023-03-12T03:51:06.811Z,97797.16
2023-03-12T03:54:31.074Z,97785.22
2023-03-12T03:57:54.018Z,97785.44
2023-03-12T04:01:16.040Z,97777.78
2023-03-12T04:04:39.339Z,97774.50
2023-03-12T04:08:03.239Z,97777.97
2023-03-12T04:11:27.855Z,97782.91
2023-03-12T04:14:53.164Z,97781.63
2023-03-12T04:18:19.885Z,97781.44
2023-03-12T04:21:43.496Z,97773.03
2023-03-12T04:25:08.088Z,97768.50
2023-03-12T04:28:30.886Z,97777.44
2023-03-12T04:31:54.370Z,97775.84
2023-03-12T04:35:16.923Z,97778.47
2023-03-12T04:38:38.987Z,97777.41
2023-03-12T04:42:02.649Z,97758.31
2023-03-12T04:45:25.954Z,97771.34
2023-03-12T04:48:48.043Z,97773.84
2023-03-12T04:52:11.602Z,97768.41
2023-03-12T04:55:33.585Z,97766.50
2023-03-12T04:58:55.683Z,97771.56
2023-03-12T05:02:19.652Z,97779.22
2023-03-12T05:05:42.649Z,97771.34
2023-03-12T05:09:05.301Z,97778.69
2023-03-12T05:12:27.566Z,97773.88
2023-03-12T05:15:51.371Z,97776.50
2023-03-12T05:19:14.967Z,97781.44
2023-03-12T05:22:37.886Z,97785.31
2023-03-12T05:25:59.966Z,97778.28
2023-03-12T05:29:23.343Z,97787.84
2023-03-12T05:32:45.720Z,97781.44
2023-03-12T05:36:10.095Z,97781.97
2023-03-12T05:39:33.364Z,97778.81
2023-03-12T05:42:59.386Z,97780.47
2023-03-12T05:46:25.700Z,97782.69
2023-03-12T05:49:47.872Z,97774.81
2023-03-12T05:53:12.318Z,97777.56
2023-03-12T05:56:37.184Z,97776.81
2023-03-12T05:59:59.511Z,97770.94
2023-03-12T06:03:22.523Z,97774.59
2023-03-12T06:06:46.663Z,97782.59
2023-03-12T06:10:10.235Z,97791.09
2023-03-12T06:13:32.748Z,97794.97
2023-03-12T06:16:54.706Z,97799.50
2023-03-12T06:20:17.187Z,97794.53
2023-03-12T06:23:40.647Z,97797.78
2023-03-12T06:27:04.320Z,97808.28
2023-03-12T06:30:27.542Z,97805.75
2023-03-12T06:33:49.787Z,97809.50
2023-03-12T06:37:11.970Z,97807.06
2023-03-12T06:40:33.788Z,97817.69
2023-03-12T06:43:55.708Z,97817.78
2023-03-12T06:47:17.928Z,97822.91
2023-03-12T06:50:39.716Z,97820.16
2023-03-12T06:59:09.259Z,97810.84
2023-03-12T07:02:31.251Z,97804.69
2023-03-12T07:05:57.931Z,97793.78
2023-03-12T07:09:21.012Z,97782.34
2023-03-12T07:12:46.076Z,97804.69
2023-03-12T07:16:14.327Z,97811.97
2023-03-12T07:19:36.360Z,97819.19
2023-03-12T07:23:00.097Z,97826.94
2023-03-12T07:26:23.449Z,97834.91
2023-03-12T07:29:48.020Z,97842.94
2023-03-12T07:33:12.946Z,97852.25
2023-03-12T07:36:34.968Z,97853.81
2023-03-12T07:39:57.008Z,97838.41
2023-03-12T07:43:21.563Z,97844.78
2023-03-12T07:46:44.723Z,97842.38
2023-03-12T07:50:08.294Z,97840.09
2023-03-12T07:53:31.240Z,97826.56
2023-03-12T07:56:53.104Z,97830.16
2023-03-12T08:00:15.365Z,97837.97
2023-03-12T08:03:38.811Z,97842.13
2023-03-12T08:07:02.753Z,97843.69
2023-03-12T08:10:24.781Z,97842.97
2023-03-12T08:13:46.747Z,97845.41
2023-03-12T08:17:09.525Z,97842.56
2023-03-12T08:20:31.537Z,97860.38
2023-03-12T08:23:53.417Z,97870.63
2023-03-12T08:27:16.378Z,97869.78
2023-03-12T08:30:40.232Z,97876.19
2023-03-12T08:34:02.073Z,97875.06
2023-03-12T08:37:23.928Z,97887.25
2023-03-12T08:41:00.660Z,97897.81
2023-03-12T08:44:26.975Z,97900.31
2023-03-12T08:47:50.230Z,97898.94
2023-03-12T08:51:12.173Z,97894.00
2023-03-12T08:54:34.105Z,97892.41
2023-03-12T08:57:56.701Z,97882.28
2023-03-12T09:01:18.613Z,97889.38
2023-03-12T09:04:40.636Z,97888.56
2023-03-12T09:08:02.597Z,97898.78
2023-03-12T09:11:24.460Z,97897.91
2023-03-12T09:15:03.754Z,97906.06
2023-03-12T09:18:26.321Z,97907.78
2023-03-12T09:21:48.190Z,97914.16
2023-03-12T09:25:11.345Z,97928.34
2023-03-12T09:28:35.195Z,97926.31
2023-03-12T09:31:57.473Z,97925.25
2023-03-12T09:35:19.477Z,97919.25
2023-03-12T09:38:42.371Z,97918.03
2023-03-12T09:42:20.458Z,97917.41
2023-03-12T09:45:47.229Z,97932.41
2023-03-12T09:49:46.513Z,97924.88
2023-03-12T09:53:27.382Z,97924.28
2023-03-12T09:56:52.530Z,97924.13
2023-03-12T10:00:21.795Z,97918.78
2023-03-12T10:04:27.263Z,97911.97
2023-03-12T10:08:07.561Z,97910.28
2023-03-12T10:12:02.356Z,97906.94
2023-03-12T10:15:51.228Z,97901.56
2023-03-12T10:19:37.440Z,97909.38
2023-03-12T10:23:16.679Z,97918.63
2023-03-12T10:26:49.223Z,97916.44
2023-03-12T10:30:28.691Z,97920.34
2023-03-12T10:34:03.337Z,97933.97
2023-03-12T10:37:38.282Z,97943.63
2023-03-12T10:41:01.156Z,97943.59
2023-03-12T10:44:25.498Z,97936.25
2023-03-12T10:47:57.211Z,97932.38
2023-03-12T10:51:19.153Z,97928.44
2023-03-12T10:54:46.906Z,97930.47
2023-03-12T10:58:24.070Z,97937.84
2023-03-12T11:01:51.441Z,97935.94
2023-03-12T11:05:29.577Z,97930.06
2023-03-12T11:09:17.041Z,97923.34
2023-03-12T11:13:05.551Z,97924.75
2023-03-12T11:16:31.964Z,97924.38
2023-03-12T11:19:54.783Z,97926.16
2023-03-12T11:23:24.079Z,97932.13
2023-03-12T11:27:42.535Z,97925.22
2023-03-12T11:31:15.596Z,97925.66
2023-03-12T11:34:39.828Z,97934.72
2023-03-12T11:38:24.404Z,97924.75
2023-03-12T11:42:13.547Z,97912.41
2023-03-12T11:46:16.390Z,97912.38
2023-03-12T11:49:59.714Z,97905.66
2023-03-12T11:53:51.820Z,97916.28
2023-03-12T11:57:13.692Z,97905.97
2023-03-12T12:00:54.911Z,97913.28
2023-03-12T12:04:51.683Z,97903.41
2023-03-12T12:08:19.471Z,97896.53
2023-03-12T12:11:51.052Z,97890.09
2023-03-12T12:15:39.080Z,97899.78
2023-03-12T12:19:48.014Z,97897.69
2023-03-12T12:23:41.810Z,97871.78
2023-03-12T12:27:24.492Z,97875.41
2023-03-12T12:31:30.227Z,97875.44
2023-03-12T12:35:14.261Z,97875.88
2023-03-12T12:38:44.263Z,97877.41
2023-03-12T12:42:20.943Z,97878.91
2023-03-12T12:45:48.507Z,97881.16
2023-03-12T12:49:19.545Z,97885.50
2023-03-12T12:52:42.386Z,97885.94
2023-03-12T12:56:18.302Z,97894.41
2023-03-12T13:00:04.775Z,97886.38
2023-03-12T13:03:30.463Z,97875.94
2023-03-12T13:07:25.830Z,97879.66
2023-03-12T13:10:57.876Z,97870.06
2023-03-12T13:14:40.646Z,97880.94
2023-03-12T13:18:29.037Z,97888.59
2023-03-12T13:22:37.686Z,97893.00
2023-03-12T13:26:40.578Z,97887.91
2023-03-12T13:30:46.995Z,97884.94
2023-03-12T13:34:17.822Z,97884.19
2023-03-12T13:38:01.025Z,97892.22
2023-03-12T13:41:40.961Z,97888.38
2023-03-12T13:45:26.106Z,97895.63
2023-03-12T13:48:50.150Z,97881.56
2023-03-12T13:52:25.846Z,97892.91
2023-03-12T13:56:29.021Z,97896.38
2023-03-12T13:59:52.735Z,97910.63
2023-03-12T14:03:24.924Z,97905.97
2023-03-12T14:07:38.457Z,97898.06
2023-03-12T14:11:42.916Z,97902.44
2023-03-12T14:15:23.693Z,97889.72
2023-03-12T14:18:47.438Z,97879.16
2023-03-12T14:22:13.862Z,97867.66
2023-03-12T14:25:41.861Z,97867.22
2023-03-12T14:29:15.180Z,97869.75
2023-03-12T14:32:38.741Z,97869.00
2023-03-12T14:36:16.808Z,97871.47
2023-03-12T14:40:18.362Z,97870.66
2023-03-12T14:43:43.351Z,97885.09
2023-03-12T14:47:17.421Z,97893.00
2023-03-12T14:50:41.173Z,97904.91
2023-03-12T14:54:04.199Z,97892.50
2023-03-12T14:57:26.816Z,97887.00
2023-03-12T15:01:06.687Z,97877.44
2023-03-12T15:04:33.391Z,97881.75
2023-03-12T15:08:18.166Z,97884.50
2023-03-12T15:11:41.141Z,97883.03
2023-03-12T15:15:28.447Z,97875.34
2023-03-12T15:18:51.266Z,97879.03
2023-03-12T15:22:27.713Z,97874.78
2023-03-12T15:26:28.524Z,97861.84
2023-03-12T15:29:52.752Z,97859.06
2023-03-12T15:33:18.911Z,97859.09
2023-03-12T15:36:49.814Z,97854.38
2023-03-12T15:40:21.794Z,97855.38
2023-03-12T15:43:52.845Z,97847.94
2023-03-12T15:47:25.737Z,97852.06
2023-03-12T15:50:47.794Z,97854.81
2023-03-12T15:54:18.684Z,97853.59
2023-03-12T15:57:53.672Z,97845.41
2023-03-12T16:01:23.872Z,97865.03
2023-03-12T16:04:45.738Z,97859.22
2023-03-12T16:08:20.731Z,97851.06
2023-03-12T16:11:43.213Z,97866.91
2023-03-12T16:15:06.776Z,97863.88
2023-03-12T16:18:28.592Z,97869.03
2023-03-12T16:21:51.406Z,97864.25
2023-03-12T16:25:14.368Z,97861.06
2023-03-12T16:28:37.238Z,97870.94
2023-03-12T16:32:00.085Z,97872.59
2023-03-12T16:35:31.829Z,97874.25
2023-03-12T16:38:54.701Z,97874.25
2023-03-12T16:42:19.435Z,97869.22
2023-03-12T16:45:45.473Z,97865.91
2023-03-12T16:49:18.035Z,97870.59
2023-03-12T16:52:41.113Z,97869.22
2023-03-12T16:56:06.596Z,97871.94
2023-03-12T16:59:38.038Z,97860.91
2023-03-12T17:03:06.461Z,97867.28
2023-03-12T17:06:29.330Z,97867.44
2023-03-12T17:09:52.465Z,97865.25
2023-03-12T17:13:26.027Z,97869.56
2023-03-12T17:16:54.220Z,97879.41
2023-03-12T17:20:21.544Z,97875.91
2023-03-12T17:23:46.692Z,97872.38
2023-03-12T17:27:08.803Z,97886.88
2023-03-12T17:30:32.071Z,97888.84
2023-03-12T17:33:53.915Z,97896.34
2023-03-12T17:37:15.746Z,97899.66
2023-03-12T17:40:42.936Z,97900.16
2023-03-12T17:44:06.968Z,97905.00
2023-03-12T17:47:30.980Z,97906.47
2023-03-12T17:50:55.029Z,97913.28
2023-03-12T17:54:18.918Z,97919.09
2023-03-12T17:57:40.992Z,97912.06
2023-03-12T18:01:04.042Z,97912.97
2023-03-12T18:04:25.969Z,97928.59
2023-03-12T18:07:50.383Z,97930.53
2023-03-12T18:11:14.385Z,97935.50
2023-03-12T18:14:36.347Z,97937.97
2023-03-12T18:17:58.709Z,97941.81
2023-03-12T18:21:20.549Z,97930.91
2023-03-12T18:24:43.435Z,97935.72
2023-03-12T18:28:05.743Z,97939.75
2023-03-12T18:31:28.657Z,97927.41
2023-03-12T18:34:53.092Z,97923.38
2023-03-12T18:38:16.088Z,97925.84
2023-03-12T18:41:39.846Z,97926.69
2023-03-12T18:45:02.810Z,97926.19
2023-03-12T18:48:25.712Z,97933.31
2023-03-12T18:51:53.281Z,97932.94
2023-03-12T18:55:15.646Z,97928.63
2023-03-12T18:58:37.865Z,97927.22
2023-03-12T19:02:00.065Z,97933.00
2023-03-12T19:05:21.927Z,97931.00
2023-03-12T19:08:44.278Z,97926.91
2023-03-12T19:12:06.324Z,97915.03
2023-03-12T19:15:28.335Z,97915.59
2023-03-12T19:18:50.983Z,97904.84
2023-03-12T19:22:12.770Z,97916.28
2023-03-12T19:25:34.574Z,97908.38
2023-03-12T19:29:02.185Z,97903.06
2023-03-12T19:32:27.710Z,97896.53
2023-03-12T19:35:57.402Z,97900.03
2023-03-12T19:39:21.560Z,97900.72
2023-03-12T19:42:43.530Z,97884.69
2023-03-12T19:46:05.563Z,97888.31
2023-03-12T19:49:27.399Z,97889.31
2023-03-12T19:52:49.222Z,97885.31
2023-03-12T19:56:11.076Z,97886.75
2023-03-12T19:59:32.872Z,97880.88
2023-03-12T20:02:54.827Z,97879.53
2023-03-12T20:06:16.783Z,97866.41
2023-03-12T20:09:38.785Z,97853.41
2023-03-12T20:13:00.677Z,97854.94
2023-03-12T20:16:22.729Z,97859.72
2023-03-12T20:19:44.697Z,97852.19
2023-03-12T20:23:08.429Z,97849.69
2023-03-12T20:26:30.518Z,97840.50
2023-03-12T20:29:52.450Z,97838.06
2023-03-12T20:33:14.878Z,97828.84
2023-03-12T20:36:37.781Z,97827.88
2023-03-12T20:40:02.680Z,97822.66
2023-03-12T20:43:24.607Z,97814.56
2023-03-12T20:46:47.894Z,97819.75
2023-03-12T20:50:10.730Z,97807.63
2023-03-12T20:53:32.607Z,97816.25
2023-03-12T20:56:54.370Z,97808.97
2023-03-12T21:00:16.778Z,97801.63
2023-03-12T21:03:38.580Z,97817.00
2023-03-12T21:07:00.541Z,97811.94
2023-03-12T21:10:22.322Z,97817.13
2023-03-12T21:13:44.165Z,97810.31
2023-03-12T21:17:06.001Z,97804.75
2023-03-12T21:20:27.965Z,97802.25
2023-03-12T21:23:49.871Z,97790.22
2023-03-12T21:27:12.905Z,97786.91
2023-03-12T21:30:35.004Z,97791.22
2023-03-12T21:33:58.141Z,97784.97
2023-03-12T21:37:20.124Z,97786.78
2023-03-12T21:40:41.932Z,97784.91
2023-03-12T21:44:04.938Z,97782.56
2023-03-12T21:47:26.936Z,97780.66
2023-03-12T21:50:48.752Z,97773.25
2023-03-12T21:54:11.155Z,97774.97
2023-03-12T21:57:33.268Z,97767.00
2023-03-12T22:01:13.310Z,97774.75
2023-03-12T22:04:35.229Z,97774.53
2023-03-12T22:07:57.060Z,97773.28
2023-03-12T22:11:19.133Z,97759.91
2023-03-12T22:14:40.937Z,97756.66
2023-03-12T22:18:02.798Z,97761.34
2023-03-12T22:21:25.313Z,97748.63
2023-03-12T22:24:47.155Z,97745.13
2023-03-12T22:28:09.171Z,97736.94
2023-03-12T22:31:31.147Z,97727.78
2023-03-12T22:34:53.010Z,97732.97
2023-03-12T22:38:15.443Z,97731.91
2023-03-12T22:41:37.238Z,97718.94
2023-03-12T22:44:59.159Z,97720.84
2023-03-12T22:48:20.996Z,97710.47
2023-03-12T22:51:42.794Z,97711.19
2023-03-12T22:55:07.297Z,97704.44
2023-03-12T22:58:29.943Z,97692.63
2023-03-12T23:01:53.850Z,97694.63
2023-03-12T23:05:15.726Z,97686.34
2023-03-12T23:08:37.970Z,97683.06
2023-03-12T23:12:03.961Z,97685.53
2023-03-12T23:15:31.966Z,97676.72
2023-03-12T23:19:02.195Z,97659.13
2023-03-12T23:22:26.643Z,97658.41
2023-03-12T23:25:57.420Z,97644.09
2023-03-12T23:29:19.273Z,97644.94
2023-03-12T23:32:41.261Z,97646.31
2023-03-12T23:36:12.168Z,97633.69
2023-03-12T23:39:42.083Z,97625.75
2023-03-12T23:43:10.236Z,97614.94
2023-03-12T23:46:34.355Z,97609.31
2023-03-12T23:49:56.148Z,97602.34
2023-03-12T23:53:18.003Z,97595.69
2023-03-12T23:56:42.457Z,97597.69
